Time;durP1;ratioP1;P1;durP2;ratioP2;P2;SDS_P1;SDS_P2;PMS_P1;PMS_P2;Temp;Humidity;BMP_temperature;BMP_pressure;BME280_temperature;BME280_humidity;BME280_pressure;Samples;Min_cycle;Max_cycle;Signal;HPM_P1;HPM_P2
2023/03/02 02:15:41;;;;;;;29.73;11.20;;;;;;;;;;6114633;23;20605;-90
2023/03/02 02:18:46;;;;;;;26.47;11.13;;;;;;;;;;6096467;23;20186;-92
2023/03/02 02:21:52;;;;;;;30.03;11.37;;;;;;;;;;6096101;23;20218;-93
2023/03/02 02:24:59;;;;;;;28.77;11.07;;;;;;;;;;6096466;23;20154;-93
2023/03/02 02:28:11;;;;;;;29.13;11.90;;;;;;;;;;6096390;23;20170;-91
2023/03/02 02:31:17;;;;;;;26.53;11.13;;;;;;;;;;6096843;23;20237;-91
2023/03/02 02:34:24;;;;;;;26.03;11.40;;;;;;;;;;6096568;23;20247;-92
2023/03/02 02:37:33;;;;;;;27.60;11.00;;;;;;;;;;6095520;23;20186;-93
2023/03/02 02:40:43;;;;;;;29.10;11.43;;;;;;;;;;6097915;23;20149;-92
2023/03/02 02:43:53;;;;;;;23.53;11.03;;;;;;;;;;6096958;23;20166;-90
2023/03/02 02:46:59;;;;;;;29.37;11.73;;;;;;;;;;6097601;23;20165;-91
2023/03/02 02:50:05;;;;;;;34.83;13.07;;;;;;;;;;6096959;23;20205;-95
2023/03/02 02:53:14;;;;;;;29.53;11.70;;;;;;;;;;6095500;23;20170;-91
2023/03/02 02:56:19;;;;;;;30.60;12.13;;;;;;;;;;6112622;23;20169;-91
2023/03/02 02:59:29;;;;;;;32.43;12.60;;;;;;;;;;6098090;23;20158;-90
2023/03/02 03:02:41;;;;;;;35.07;12.20;;;;;;;;;;6097091;23;20170;-93
2023/03/02 03:05:46;;;;;;;34.50;12.50;;;;;;;;;;6096696;23;20173;-92
2023/03/02 03:08:54;;;;;;;33.77;12.10;;;;;;;;;;6096244;23;20715;-92
2023/03/02 03:12:23;;;;;;;28.40;11.20;;;;;;;;;;6096830;23;20170;-93
2023/03/02 03:15:30;;;;;;;34.93;11.40;;;;;;;;;;6100666;23;20173;-92
2023/03/02 03:18:35;;;;;;;28.47;11.37;;;;;;;;;;6100578;23;20170;-92
2023/03/02 03:21:47;;;;;;;39.47;14.03;;;;;;;;;;6101638;23;20178;-91
2023/03/02 03:24:53;;;;;;;39.20;13.80;;;;;;;;;;6099573;23;20174;-91
2023/03/02 03:27:59;;;;;;;33.33;12.80;;;;;;;;;;6099045;23;20165;-91
2023/03/02 03:31:07;;;;;;;32.47;11.30;;;;;;;;;;6099500;23;20201;-91
2023/03/02 03:34:13;;;;;;;31.00;11.87;;;;;;;;;;6098762;23;20170;-91
2023/03/02 03:37:20;;;;;;;30.53;11.97;;;;;;;;;;6098630;23;20225;-92
2023/03/02 03:40:27;;;;;;;46.30;12.80;;;;;;;;;;6098208;23;20166;-92
2023/03/02 03:43:33;;;;;;;32.43;11.43;;;;;;;;;;6099370;23;20179;-93
2023/03/02 03:46:40;;;;;;;35.93;12.10;;;;;;;;;;6100031;23;20286;-93
2023/03/02 03:49:46;;;;;;;32.73;11.70;;;;;;;;;;6098927;23;20521;-92
2023/03/02 03:52:51;;;;;;;30.13;11.37;;;;;;;;;;6100931;23;20162;-92
2023/03/02 03:56:02;;;;;;;32.33;11.20;;;;;;;;;;6099976;23;20153;-91
2023/03/02 03:59:09;;;;;;;28.30;10.97;;;;;;;;;;6100449;23;20201;-92
2023/03/02 04:02:23;;;;;;;36.07;12.03;;;;;;;;;;6100623;23;20174;-92
2023/03/02 04:05:30;;;;;;;29.57;11.53;;;;;;;;;;6099826;23;20166;-93
2023/03/02 04:08:35;;;;;;;30.47;11.87;;;;;;;;;;6114662;23;20169;-94
2023/03/02 04:11:42;;;;;;;34.33;11.33;;;;;;;;;;6097482;23;20222;-91
2023/03/02 04:14:49;;;;;;;30.77;11.33;;;;;;;;;;6099481;23;20226;-94
2023/03/02 04:17:56;;;;;;;36.37;12.40;;;;;;;;;;6098979;23;20166;-91
2023/03/02 04:21:07;;;;;;;28.37;11.47;;;;;;;;;;6096153;23;20173;-92
2023/03/02 04:24:13;;;;;;;35.90;10.67;;;;;;;;;;6098158;23;20173;-91
2023/03/02 04:27:18;;;;;;;32.50;9.87;;;;;;;;;;6095709;23;20200;-92
2023/03/02 04:30:25;;;;;;;34.83;11.47;;;;;;;;;;6096321;23;20190;-92
2023/03/02 04:33:33;;;;;;;28.17;10.10;;;;;;;;;;6097693;23;20217;-92
2023/03/02 04:36:39;;;;;;;27.83;10.90;;;;;;;;;;6096689;23;20246;-91
2023/03/02 04:39:50;;;;;;;32.30;10.83;;;;;;;;;;6097338;23;20298;-91
2023/03/02 04:42:56;;;;;;;32.60;10.03;;;;;;;;;;6097059;23;20195;-94
2023/03/02 04:46:06;;;;;;;27.87;10.23;;;;;;;;;;6115233;23;20154;-90
2023/03/02 04:49:13;;;;;;;32.73;10.93;;;;;;;;;;6097321;23;20207;-92
2023/03/02 04:52:19;;;;;;;33.90;10.90;;;;;;;;;;6097803;23;20173;-94
2023/03/02 04:55:25;;;;;;;29.67;11.10;;;;;;;;;;6095592;23;20190;-92
2023/03/02 04:58:31;;;;;;;28.10;10.50;;;;;;;;;;6096761;23;20162;-91
2023/03/02 05:01:48;;;;;;;27.20;10.77;;;;;;;;;;6097194;23;20154;-92
2023/03/02 05:04:55;;;;;;;29.90;10.40;;;;;;;;;;6097635;23;20211;-92
2023/03/02 05:08:00;;;;;;;33.03;12.07;;;;;;;;;;6097369;23;20165;-91
2023/03/02 05:11:08;;;;;;;32.87;11.97;;;;;;;;;;6096508;23;20209;-92
2023/03/02 05:14:14;;;;;;;28.50;10.57;;;;;;;;;;6096831;23;20190;-93
2023/03/02 05:17:20;;;;;;;25.60;9.70;;;;;;;;;;6115752;23;20198;-92
2023/03/02 05:20:35;;;;;;;26.23;10.80;;;;;;;;;;6098517;23;20188;-93
2023/03/02 05:23:40;;;;;;;26.50;10.20;;;;;;;;;;6099187;23;20169;-91
2023/03/02 05:26:46;;;;;;;32.10;10.17;;;;;;;;;;6099141;23;20210;-92
2023/03/02 05:29:52;;;;;;;34.80;10.70;;;;;;;;;;6097276;23;20165;-92
2023/03/02 05:32:57;;;;;;;39.00;10.53;;;;;;;;;;6098899;23;20175;-90
2023/03/02 05:36:05;;;;;;;28.80;10.17;;;;;;;;;;6100302;23;20170;-91
2023/03/02 05:39:14;;;;;;;30.77;10.27;;;;;;;;;;6115309;23;20213;-91
2023/03/02 05:42:20;;;;;;;35.50;11.37;;;;;;;;;;6099478;23;20218;-92
2023/03/02 05:45:32;;;;;;;31.50;12.20;;;;;;;;;;6098750;23;20170;-91
2023/03/02 10:50:55;;;;;;;16.10;4.80;;;;;;;;;;6148305;23;20246;-93
2023/03/02 10:54:05;;;;;;;22.55;4.35;;;;;;;;;;6154870;23;20160;-93
2023/03/02 10:57:28;;;;;;;16.40;4.50;;;;;;;;;;6156423;23;20188;-91
2023/03/02 11:00:42;;;;;;;13.43;4.00;;;;;;;;;;6155387;23;20289;-93
2023/03/02 11:03:57;;;;;;;12.25;3.80;;;;;;;;;;6155518;23;20181;-92
2023/03/02 11:07:18;;;;;;;18.63;4.53;;;;;;;;;;6155200;23;20205;-91
2023/03/02 11:10:25;;;;;;;16.50;4.25;;;;;;;;;;6158160;23;20192;-92
2023/03/02 11:13:32;;;;;;;13.90;4.72;;;;;;;;;;6157454;23;20173;-93
2023/03/02 11:16:38;;;;;;;17.80;4.32;;;;;;;;;;6156867;23;20237;-93
2023/03/02 11:19:49;;;;;;;14.15;4.90;;;;;;;;;;6154032;23;20168;-91
2023/03/02 11:23:02;;;;;;;15.30;4.78;;;;;;;;;;6154565;23;20176;-94
2023/03/02 11:26:14;;;;;;;12.40;4.32;;;;;;;;;;6154419;23;20176;-95
2023/03/02 11:29:26;;;;;;;15.88;4.18;;;;;;;;;;6153915;23;20164;-94
2023/03/02 11:32:34;;;;;;;21.30;3.92;;;;;;;;;;6155643;23;20176;-92
2023/03/02 11:35:44;;;;;;;17.15;4.40;;;;;;;;;;6155515;23;20168;-90
2023/03/02 11:38:55;;;;;;;14.77;4.57;;;;;;;;;;6156963;23;20169;-92
2023/03/02 11:42:01;;;;;;;18.30;4.15;;;;;;;;;;6156991;23;20168;-90
2023/03/02 11:45:16;;;;;;;22.50;4.20;;;;;;;;;;6159813;23;20261;-93
2023/03/02 11:48:25;;;;;;;22.55;5.30;;;;;;;;;;6158043;23;20165;-91
2023/03/02 11:51:33;;;;;;;16.77;4.40;;;;;;;;;;6155125;23;20196;-90
2023/03/02 11:54:44;;;;;;;18.40;4.30;;;;;;;;;;6156567;23;20175;-90
2023/03/02 11:57:52;;;;;;;16.40;4.45;;;;;;;;;;6156664;23;20208;-92
2023/03/02 12:01:00;;;;;;;21.30;4.35;;;;;;;;;;6157651;23;20176;-92
2023/03/02 12:04:09;;;;;;;16.08;5.40;;;;;;;;;;6155185;23;20172;-89
2023/03/02 12:07:21;;;;;;;14.90;4.22;;;;;;;;;;6155690;23;20157;-91
2023/03/02 12:10:41;;;;;;;16.77;4.13;;;;;;;;;;6158140;23;20221;-92
2023/03/02 12:13:52;;;;;;;13.95;4.03;;;;;;;;;;6158757;23;20168;-92
2023/03/02 12:17:05;;;;;;;15.02;4.00;;;;;;;;;;6156492;23;20255;-93
2023/03/02 12:20:25;;;;;;;17.80;3.97;;;;;;;;;;6154804;23;20165;-93
2023/03/02 12:23:31;;;;;;;13.70;3.63;;;;;;;;;;6156351;23;20169;-93
2023/03/02 12:26:41;;;;;;;16.75;4.32;;;;;;;;;;6157445;23;20248;-90
2023/03/02 12:29:48;;;;;;;16.52;3.97;;;;;;;;;;6158970;23;20237;-93
2023/03/02 12:33:02;;;;;;;13.68;4.00;;;;;;;;;;6156283;23;20164;-91
2023/03/02 12:36:12;;;;;;;12.63;3.75;;;;;;;;;;6157220;23;20208;-92
2023/03/02 12:39:29;;;;;;;10.77;3.78;;;;;;;;;;6156575;23;20213;-91
2023/03/02 12:42:48;;;;;;;17.08;3.67;;;;;;;;;;6157592;23;20213;-92
2023/03/02 12:46:02;;;;;;;14.45;3.53;;;;;;;;;;6154586;23;20180;-93
2023/03/02 12:49:26;;;;;;;18.52;3.60;;;;;;;;;;6156058;23;20169;-91
2023/03/02 12:52:32;;;;;;;13.43;3.60;;;;;;;;;;6155434;23;20197;-90
2023/03/02 12:55:39;;;;;;;14.32;4.25;;;;;;;;;;6153560;23;20184;-91
2023/03/02 12:58:49;;;;;;;19.25;4.25;;;;;;;;;;6151616;23;20200;-93
2023/03/02 13:02:15;;;;;;;12.50;3.67;;;;;;;;;;6151488;23;20172;-92
2023/03/02 13:05:22;;;;;;;15.23;3.92;;;;;;;;;;6155437;23;20230;-92
2023/03/02 13:08:30;;;;;;;14.43;3.65;;;;;;;;;;6155615;23;20239;-90
2023/03/02 13:11:36;;;;;;;15.30;3.40;;;;;;;;;;6155013;23;20179;-94
2023/03/02 13:14:50;;;;;;;10.80;3.70;;;;;;;;;;6154286;23;20240;-92
2023/03/02 13:17:57;;;;;;;13.70;4.20;;;;;;;;;;6155960;23;20216;-91
2023/03/02 13:21:05;;;;;;;10.70;2.95;;;;;;;;;;6157728;23;20168;-93
2023/03/02 13:24:26;;;;;;;22.00;5.10;;;;;;;;;;6155793;23;20181;-92
2023/03/02 13:27:32;;;;;;;10.98;3.00;;;;;;;;;;6156109;23;20236;-92
2023/03/02 13:30:46;;;;;;;20.30;3.70;;;;;;;;;;6158128;23;20193;-93
2023/03/02 13:33:57;;;;;;;25.13;7.75;;;;;;;;;;6156296;23;20627;-93
2023/03/02 13:37:03;;;;;;;20.38;6.88;;;;;;;;;;6155504;23;20167;-91
2023/03/02 13:40:30;;;;;;;30.73;8.25;;;;;;;;;;6155359;23;20168;-92
2023/03/02 13:43:40;;;;;;;18.77;7.30;;;;;;;;;;6156468;23;20176;-92
2023/03/02 13:46:47;;;;;;;19.73;8.55;;;;;;;;;;6156961;23;20228;-92
2023/03/02 13:49:53;;;;;;;19.42;7.20;;;;;;;;;;6155591;23;20205;-92
2023/03/02 13:53:00;;;;;;;19.70;8.15;;;;;;;;;;6156632;23;20215;-93
2023/03/02 13:56:12;;;;;;;19.85;7.55;;;;;;;;;;6159848;23;20176;-91
2023/03/02 13:59:19;;;;;;;20.35;6.47;;;;;;;;;;6156581;23;20196;-93
2023/03/02 14:02:26;;;;;;;23.42;7.30;;;;;;;;;;6156263;23;20172;-92
2023/03/02 14:05:33;;;;;;;16.42;7.68;;;;;;;;;;6155017;23;20172;-91
2023/03/02 14:08:38;;;;;;;16.42;7.00;;;;;;;;;;6158267;23;20214;-92
2023/03/02 14:11:45;;;;;;;21.80;7.05;;;;;;;;;;6155218;23;20240;-92
2023/03/02 14:14:52;;;;;;;21.40;6.55;;;;;;;;;;6153592;23;20238;-93
2023/03/02 14:18:00;;;;;;;16.80;6.22;;;;;;;;;;6153518;23;20234;-92
2023/03/02 14:21:10;;;;;;;17.55;6.97;;;;;;;;;;6153754;23;20221;-91
2023/03/02 14:24:19;;;;;;;17.23;6.38;;;;;;;;;;6156938;23;20227;-91
2023/03/02 14:27:29;;;;;;;22.85;6.35;;;;;;;;;;6157374;23;20225;-91
2023/03/02 14:30:35;;;;;;;20.63;6.60;;;;;;;;;;6156192;23;20180;-93
2023/03/02 14:33:42;;;;;;;14.63;6.13;;;;;;;;;;6157189;23;20177;-93
2023/03/02 14:36:50;;;;;;;18.88;6.35;;;;;;;;;;6156746;23;20242;-91
2023/03/02 14:39:57;;;;;;;22.95;6.72;;;;;;;;;;6158521;23;20263;-93
2023/03/02 14:43:02;;;;;;;13.40;6.20;;;;;;;;;;6157089;23;20270;-92
2023/03/02 14:46:07;;;;;;;19.38;6.57;;;;;;;;;;6157595;23;20168;-93
2023/03/02 14:49:16;;;;;;;23.33;8.30;;;;;;;;;;6157464;23;20217;-92
2023/03/02 14:56:16;;;;;;;24.63;6.68;;;;;;;;;;6172329;23;20250;-91
2023/03/02 14:59:22;;;;;;;17.60;6.30;;;;;;;;;;6156745;23;20172;-93
2023/03/02 15:02:29;;;;;;;19.23;6.63;;;;;;;;;;6155931;23;20205;-92
2023/03/02 15:05:37;;;;;;;18.27;6.20;;;;;;;;;;6156525;23;20181;-93
2023/03/02 15:08:43;;;;;;;17.00;6.15;;;;;;;;;;6155430;23;20168;-93
2023/03/02 15:11:48;;;;;;;20.20;7.03;;;;;;;;;;6156775;23;20222;-92
2023/03/02 15:14:54;;;;;;;16.38;6.43;;;;;;;;;;6156526;23;20168;-93
2023/03/02 15:17:59;;;;;;;18.95;6.78;;;;;;;;;;6154618;23;20160;-94
2023/03/02 15:24:55;;;;;;;25.13;6.78;;;;;;;;;;6155546;23;20160;-93
2023/03/02 15:28:01;;;;;;;17.33;6.85;;;;;;;;;;6156390;23;20216;-91
2023/03/02 15:34:33;;;;;;;17.50;6.32;;;;;;;;;;6155936;23;20252;-92
2023/03/02 15:37:40;;;;;;;17.40;6.97;;;;;;;;;;6153812;23;20189;-92
2023/03/02 15:40:49;;;;;;;14.57;7.05;;;;;;;;;;6153790;23;20176;-94
2023/03/02 15:43:56;;;;;;;20.13;6.65;;;;;;;;;;6154768;23;20173;-93
2023/03/02 15:47:02;;;;;;;13.90;6.85;;;;;;;;;;6154876;23;20262;-93
2023/03/02 15:50:10;;;;;;;14.00;6.55;;;;;;;;;;6153925;23;20196;-95
2023/03/02 15:53:16;;;;;;;18.50;6.55;;;;;;;;;;6154124;23;20257;-91
2023/03/02 15:56:24;;;;;;;15.85;6.88;;;;;;;;;;6153019;23;20243;-92
2023/03/02 15:59:31;;;;;;;17.02;7.22;;;;;;;;;;6154979;23;20500;-91
2023/03/02 16:02:39;;;;;;;15.48;6.60;;;;;;;;;;6153363;23;20173;-91
2023/03/02 16:05:48;;;;;;;18.58;7.25;;;;;;;;;;6155538;23;20193;-93
2023/03/02 16:09:06;;;;;;;19.15;7.10;;;;;;;;;;6155471;23;20205;-92
2023/03/02 16:15:44;;;;;;;20.08;6.97;;;;;;;;;;6155327;23;20220;-92
2023/03/02 16:22:45;;;;;;;22.35;7.43;;;;;;;;;;6173329;23;20188;-93
2023/03/02 16:25:53;;;;;;;25.92;8.68;;;;;;;;;;6157029;23;20200;-94
2023/03/02 16:29:01;;;;;;;20.33;7.35;;;;;;;;;;6156927;23;20672;-91
2023/03/02 16:32:07;;;;;;;17.65;7.13;;;;;;;;;;6157448;23;20196;-92
2023/03/02 16:35:18;;;;;;;14.50;6.53;;;;;;;;;;6154843;23;20220;-92
2023/03/02 16:38:32;;;;;;;22.50;7.20;;;;;;;;;;6142436;23;20164;-93
2023/03/02 16:41:38;;;;;;;20.80;7.93;;;;;;;;;;6154592;23;20176;-92
2023/03/02 16:45:01;;;;;;;21.98;7.80;;;;;;;;;;6155460;23;20220;-92
2023/03/02 16:48:24;;;;;;;18.45;7.30;;;;;;;;;;6159401;23;20176;-89
2023/03/02 16:51:32;;;;;;;19.92;8.00;;;;;;;;;;6155192;23;20196;-91
2023/03/02 16:57:57;;;;;;;33.03;9.10;;;;;;;;;;6152243;23;20647;-91
2023/03/02 17:01:05;;;;;;;31.02;10.90;;;;;;;;;;6152902;23;20168;-93
2023/03/02 17:04:12;;;;;;;34.53;10.75;;;;;;;;;;6153739;23;20252;-88
2023/03/02 17:07:21;;;;;;;25.75;9.27;;;;;;;;;;6152782;23;20273;-91
2023/03/02 17:10:27;;;;;;;36.63;12.60;;;;;;;;;;6152803;23;20168;-92
2023/03/02 17:13:32;;;;;;;34.67;11.25;;;;;;;;;;6153448;23;20204;-91
2023/03/02 17:16:40;;;;;;;34.58;11.13;;;;;;;;;;6171868;23;20172;-93
2023/03/02 17:19:56;;;;;;;28.02;10.30;;;;;;;;;;6153194;23;20300;-90
2023/03/02 17:23:04;;;;;;;36.20;11.80;;;;;;;;;;6153572;23;20168;-91
2023/03/02 17:26:10;;;;;;;22.80;8.75;;;;;;;;;;6154443;23;20932;-92
2023/03/02 17:29:16;;;;;;;23.27;9.73;;;;;;;;;;6153469;23;20167;-92
2023/03/02 17:32:22;;;;;;;23.98;8.95;;;;;;;;;;6152197;23;20344;-90
2023/03/02 17:35:27;;;;;;;21.13;8.40;;;;;;;;;;6153126;23;20181;-93
2023/03/02 17:38:38;;;;;;;33.00;9.45;;;;;;;;;;6152906;23;20244;-92
2023/03/02 17:41:44;;;;;;;21.80;9.10;;;;;;;;;;6153835;23;20179;-92
2023/03/02 17:44:49;;;;;;;30.67;11.70;;;;;;;;;;6152069;23;20307;-90
2023/03/02 17:47:55;;;;;;;28.33;11.52;;;;;;;;;;6168349;23;20181;-90
2023/03/02 17:51:01;;;;;;;35.55;11.35;;;;;;;;;;6154121;23;20653;-93
2023/03/02 17:54:08;;;;;;;25.13;10.43;;;;;;;;;;6171797;23;20271;-90
2023/03/02 17:57:15;;;;;;;30.25;11.63;;;;;;;;;;6154437;23;20229;-93
2023/03/02 18:00:24;;;;;;;18.75;8.93;;;;;;;;;;6154917;23;20176;-91
2023/03/02 18:03:32;;;;;;;33.38;11.80;;;;;;;;;;6156130;23;20156;-92
2023/03/02 18:06:37;;;;;;;36.15;13.02;;;;;;;;;;6155175;23;20213;-91
2023/03/02 18:09:45;;;;;;;28.55;11.50;;;;;;;;;;6153650;23;20247;-92
2023/03/02 18:12:53;;;;;;;33.72;11.77;;;;;;;;;;6167511;23;20270;-89
2023/03/02 18:15:58;;;;;;;38.50;12.75;;;;;;;;;;6149172;23;20297;-91
2023/03/02 18:19:14;;;;;;;38.85;12.82;;;;;;;;;;6168925;23;20219;-91
2023/03/02 18:22:20;;;;;;;41.08;14.15;;;;;;;;;;6151131;23;20176;-89
2023/03/02 18:25:41;;;;;;;32.30;12.38;;;;;;;;;;6171543;23;20201;-92
2023/03/02 18:28:48;;;;;;;42.88;15.00;;;;;;;;;;6153914;23;20168;-91
2023/03/02 18:31:54;;;;;;;35.63;13.75;;;;;;;;;;6154545;23;20201;-92
2023/03/02 18:35:00;;;;;;;49.42;16.60;;;;;;;;;;6153563;23;20701;-90
2023/03/02 18:38:05;;;;;;;39.30;15.55;;;;;;;;;;6170708;23;20165;-92
2023/03/02 18:41:14;;;;;;;56.90;21.23;;;;;;;;;;6150290;23;20172;-93
2023/03/02 18:44:26;;;;;;;34.10;13.30;;;;;;;;;;6150339;23;20172;-93
2023/03/02 18:47:35;;;;;;;34.00;12.70;;;;;;;;;;6151087;23;20161;-93
2023/03/02 18:50:41;;;;;;;47.67;14.27;;;;;;;;;;6154290;23;20192;-91
2023/03/02 18:53:47;;;;;;;36.58;13.48;;;;;;;;;;6154545;23;20647;-92
2023/03/02 18:56:52;;;;;;;35.22;13.63;;;;;;;;;;6171951;23;20171;-91
2023/03/02 18:59:59;;;;;;;36.50;13.52;;;;;;;;;;6153382;23;20177;-90
2023/03/02 19:03:05;;;;;;;36.13;16.08;;;;;;;;;;6169787;23;20153;-94
2023/03/02 19:06:11;;;;;;;37.67;13.45;;;;;;;;;;6154676;23;20189;-93
2023/03/02 19:09:16;;;;;;;34.63;13.88;;;;;;;;;;6152581;23;20168;-93
2023/03/02 19:13:04;;;;;;;41.92;14.90;;;;;;;;;;6152875;23;20218;-92
2023/03/02 19:16:23;;;;;;;56.25;17.42;;;;;;;;;;6171076;23;20209;-91
2023/03/02 19:19:34;;;;;;;58.00;19.08;;;;;;;;;;6152670;23;20204;-90
2023/03/02 19:22:41;;;;;;;39.13;14.95;;;;;;;;;;6153500;23;20171;-91
2023/03/02 19:25:50;;;;;;;42.17;15.23;;;;;;;;;;6171165;23;20248;-91
2023/03/02 19:28:55;;;;;;;33.85;13.52;;;;;;;;;;6152852;23;20160;-91
2023/03/02 19:32:06;;;;;;;34.67;14.63;;;;;;;;;;6169576;23;20619;-92
2023/03/02 19:35:12;;;;;;;40.63;14.93;;;;;;;;;;6152203;23;20180;-91
2023/03/02 19:38:18;;;;;;;33.58;14.20;;;;;;;;;;6169738;23;20164;-91
2023/03/02 19:41:23;;;;;;;37.07;14.17;;;;;;;;;;6150288;23;20238;-93
2023/03/02 19:44:30;;;;;;;38.30;12.83;;;;;;;;;;6149109;23;20245;-91
2023/03/02 19:47:37;;;;;;;33.25;12.73;;;;;;;;;;6150095;23;20172;-91
2023/03/02 19:50:44;;;;;;;27.07;12.13;;;;;;;;;;6151271;23;20192;-89
2023/03/02 19:53:50;;;;;;;29.10;12.17;;;;;;;;;;6149358;23;20192;-92
2023/03/02 19:56:55;;;;;;;30.90;12.53;;;;;;;;;;6150865;23;20216;-93
2023/03/02 20:00:02;;;;;;;36.47;13.63;;;;;;;;;;6152364;23;20167;-92
2023/03/02 20:03:13;;;;;;;38.30;13.23;;;;;;;;;;6173434;23;20601;-92
2023/03/02 20:09:41;;;;;;;36.07;14.67;;;;;;;;;;6179833;23;20185;-93
2023/03/02 20:12:47;;;;;;;35.60;13.03;;;;;;;;;;6159360;23;20191;-92
2023/03/02 20:19:21;;;;;;;33.37;12.13;;;;;;;;;;6156389;23;20222;-93
2023/03/02 20:26:02;;;;;;;26.73;11.07;;;;;;;;;;6158228;23;20496;-90
2023/03/02 20:32:28;;;;;;;26.87;11.67;;;;;;;;;;6158835;23;20229;-91
2023/03/02 20:35:49;;;;;;;27.77;11.70;;;;;;;;;;6155637;23;20221;-92
2023/03/02 20:38:58;;;;;;;33.60;13.03;;;;;;;;;;6157189;23;20229;-92
2023/03/02 20:42:03;;;;;;;32.27;12.67;;;;;;;;;;6172756;23;20157;-92
2023/03/02 20:45:10;;;;;;;28.13;11.80;;;;;;;;;;6155352;23;20164;-93
2023/03/02 20:48:15;;;;;;;33.10;12.70;;;;;;;;;;6171563;23;20175;-91
2023/03/02 20:54:45;;;;;;;24.50;10.57;;;;;;;;;;6158071;23;20250;-91
2023/03/02 20:57:54;;;;;;;26.93;11.13;;;;;;;;;;6159298;23;20183;-93
2023/03/02 21:01:13;;;;;;;26.67;11.90;;;;;;;;;;6157856;23;20188;-94
2023/03/02 21:04:26;;;;;;;28.20;11.93;;;;;;;;;;6158478;23;20164;-92
2023/03/02 21:10:55;;;;;;;32.30;12.17;;;;;;;;;;6171219;23;20173;-92
2023/03/02 21:17:29;;;;;;;32.83;12.87;;;;;;;;;;6156353;23;20189;-92
2023/03/02 21:31:13;;;;;;;30.27;12.87;;;;;;;;;;6155109;23;20240;-91
2023/03/02 21:34:19;;;;;;;33.40;14.23;;;;;;;;;;6153473;23;20264;-90
2023/03/02 21:37:23;;;;;;;48.00;13.90;;;;;;;;;;6152579;23;20177;-91
2023/03/02 21:40:30;;;;;;;33.37;12.80;;;;;;;;;;6152597;23;20175;-92
2023/03/02 21:43:36;;;;;;;30.93;13.20;;;;;;;;;;6153178;23;20169;-94
2023/03/02 21:46:43;;;;;;;25.97;11.87;;;;;;;;;;6169564;23;20176;-92
2023/03/02 21:49:49;;;;;;;35.10;13.00;;;;;;;;;;6153112;23;20370;-93
2023/03/02 21:52:54;;;;;;;31.93;12.63;;;;;;;;;;6170664;23;20241;-93
2023/03/02 21:56:00;;;;;;;37.17;13.47;;;;;;;;;;6151939;23;20171;-90
2023/03/02 21:59:05;;;;;;;35.60;14.20;;;;;;;;;;6167595;23;20247;-91
2023/03/02 22:02:13;;;;;;;47.07;14.30;;;;;;;;;;6150629;23;20172;-92
2023/03/02 22:05:19;;;;;;;35.03;13.03;;;;;;;;;;6167510;23;20171;-91
2023/03/02 22:08:24;;;;;;;41.43;14.70;;;;;;;;;;6152139;23;20160;-92
2023/03/02 22:11:30;;;;;;;44.60;14.87;;;;;;;;;;6168571;23;20173;-93
2023/03/02 22:14:40;;;;;;;38.17;13.27;;;;;;;;;;6152406;23;20271;-92
2023/03/02 22:17:50;;;;;;;43.17;16.30;;;;;;;;;;6167953;23;20209;-91
2023/03/02 22:25:16;;;;;;;34.17;13.37;;;;;;;;;;6169942;23;20214;-91
2023/03/02 22:28:23;;;;;;;36.10;14.67;;;;;;;;;;6169478;23;20252;-92
2023/03/02 22:31:28;;;;;;;42.33;15.23;;;;;;;;;;6152790;23;20177;-93
2023/03/02 22:34:40;;;;;;;36.90;13.63;;;;;;;;;;6154166;23;20196;-92
2023/03/02 22:41:05;;;;;;;29.17;12.73;;;;;;;;;;6155402;23;20237;-93
2023/03/02 22:44:14;;;;;;;31.43;12.43;;;;;;;;;;6153941;23;20192;-92
2023/03/02 22:47:20;;;;;;;31.73;12.53;;;;;;;;;;6155330;23;20175;-93
2023/03/02 22:50:30;;;;;;;28.33;11.47;;;;;;;;;;6155721;23;20187;-94
2023/03/02 22:53:39;;;;;;;31.43;11.63;;;;;;;;;;6160037;23;20209;-92
2023/03/02 22:56:46;;;;;;;29.80;12.90;;;;;;;;;;6156402;23;20172;-93
2023/03/02 22:59:51;;;;;;;31.10;12.87;;;;;;;;;;6157994;23;20181;-94
2023/03/02 23:03:34;;;;;;;30.17;12.77;;;;;;;;;;6154470;23;20202;-92
2023/03/02 23:06:45;;;;;;;29.90;11.90;;;;;;;;;;6151433;23;20264;-91
2023/03/02 23:09:52;;;;;;;38.73;12.97;;;;;;;;;;6171239;23;20176;-92
2023/03/02 23:12:57;;;;;;;35.77;12.43;;;;;;;;;;6153908;23;20221;-93
2023/03/02 23:16:03;;;;;;;37.80;12.87;;;;;;;;;;6156990;23;20221;-91
2023/03/02 23:19:52;;;;;;;31.63;13.20;;;;;;;;;;6151211;23;20180;-92
2023/03/02 23:22:59;;;;;;;32.27;12.57;;;;;;;;;;6152312;23;20173;-92
2023/03/02 23:26:04;;;;;;;29.17;12.07;;;;;;;;;;6151836;23;20248;-91
2023/03/02 23:29:09;;;;;;;30.87;12.23;;;;;;;;;;6151583;23;20196;-92
2023/03/02 23:32:14;;;;;;;34.90;11.67;;;;;;;;;;6154231;23;20191;-90
2023/03/02 23:35:19;;;;;;;28.63;11.97;;;;;;;;;;6153706;23;20200;-91
2023/03/02 23:38:27;;;;;;;30.07;10.43;;;;;;;;;;6170986;23;20216;-92
2023/03/02 23:41:32;;;;;;;23.73;10.37;;;;;;;;;;6152962;23;20197;-94
2023/03/02 23:44:38;;;;;;;30.50;11.37;;;;;;;;;;6171303;23;20200;-93
2023/03/02 23:47:43;;;;;;;35.43;11.87;;;;;;;;;;6149819;23;20172;-92
2023/03/02 23:50:48;;;;;;;30.27;11.60;;;;;;;;;;6150848;23;20715;-91
2023/03/02 23:53:55;;;;;;;28.20;11.47;;;;;;;;;;6152513;23;20192;-92
2023/03/02 23:57:00;;;;;;;25.20;11.23;;;;;;;;;;6150298;23;20373;-93
